Time;durP1;ratioP1;P1;durP2;ratioP2;P2;SDS_P1;SDS_P2;PMS_P1;PMS_P2;Temp;Humidity;BMP_temperature;BMP_pressure;BME280_temperature;BME280_humidity;BME280_pressure;Samples;Min_cycle;Max_cycle;Signal;HPM_P1;HPM_P2
2021/01/02 00:01:32;;;;;;;8.30;4.75;;;0.80;99.90;;;;;;4992332;28;20236;-75
2021/01/02 00:04:13;;;;;;;8.23;4.18;;;0.80;99.90;;;;;;4989960;28;20238;-74
2021/01/02 00:06:41;;;;;;;7.55;3.95;;;0.80;99.90;;;;;;4994061;28;20273;-74
2021/01/02 00:09:10;;;;;;;9.02;4.05;;;0.80;99.90;;;;;;4987828;28;20203;-74
2021/01/02 00:12:15;;;;;;;5.68;3.45;;;0.90;99.90;;;;;;4999660;28;20667;-74
2021/01/02 00:14:55;;;;;;;7.75;3.72;;;0.90;99.90;;;;;;4992279;28;20205;-74
2021/01/02 00:17:29;;;;;;;5.78;3.47;;;0.90;99.90;;;;;;4991408;28;20214;-74
2021/01/02 00:20:05;;;;;;;7.47;3.88;;;0.90;99.90;;;;;;4993378;28;20269;-75
2021/01/02 00:22:39;;;;;;;6.15;3.53;;;0.80;99.90;;;;;;4991626;28;20199;-74
2021/01/02 00:25:11;;;;;;;7.93;3.75;;;0.90;99.90;;;;;;4992954;28;20191;-74
2021/01/02 00:28:16;;;;;;;6.18;3.53;;;0.80;99.90;;;;;;4995333;28;20223;-74
2021/01/02 00:31:00;;;;;;;6.63;3.80;;;0.80;99.90;;;;;;4994389;28;20790;-74
2021/01/02 00:34:04;;;;;;;7.30;4.20;;;0.80;99.90;;;;;;4998792;28;20200;-74
2021/01/02 00:37:04;;;;;;;7.07;3.67;;;0.80;99.90;;;;;;4995421;28;20645;-74
2021/01/02 00:39:41;;;;;;;5.82;3.47;;;0.70;99.90;;;;;;4996750;28;20708;-74
2021/01/02 00:42:11;;;;;;;7.32;3.50;;;0.80;99.90;;;;;;4996302;28;20186;-75
2021/01/02 00:44:41;;;;;;;8.77;3.88;;;0.70;99.90;;;;;;4993863;28;20257;-74
2021/01/02 00:47:09;;;;;;;6.82;3.40;;;0.70;99.90;;;;;;4993294;28;20670;-74
2021/01/02 00:49:36;;;;;;;5.75;3.53;;;0.70;99.90;;;;;;4993016;28;20206;-74
2021/01/02 00:52:43;;;;;;;5.85;3.72;;;0.70;99.90;;;;;;4996420;28;20678;-74
2021/01/02 00:55:24;;;;;;;5.25;3.40;;;0.70;99.90;;;;;;4992567;28;20207;-75
2021/01/02 00:58:09;;;;;;;8.98;3.30;;;0.70;99.90;;;;;;4994069;28;20657;-74
2021/01/02 01:00:39;;;;;;;5.32;3.08;;;0.70;99.90;;;;;;4991432;28;20732;-75
2021/01/02 01:03:11;;;;;;;5.63;3.08;;;0.80;99.90;;;;;;4997365;28;20195;-75
2021/01/02 01:05:39;;;;;;;4.68;3.00;;;0.70;99.90;;;;;;4991096;28;20261;-74
2021/01/02 01:08:06;;;;;;;8.02;3.03;;;0.80;99.90;;;;;;4994329;28;20293;-74
2021/01/02 01:10:34;;;;;;;6.47;3.45;;;0.70;99.90;;;;;;5001716;28;20294;-74
2021/01/02 01:13:18;;;;;;;4.55;2.88;;;0.70;99.90;;;;;;4993348;28;20716;-75
2021/01/02 01:15:44;;;;;;;6.55;3.40;;;0.70;99.90;;;;;;4991178;28;20219;-74
2021/01/02 01:18:32;;;;;;;6.13;3.10;;;0.70;99.90;;;;;;4997030;28;20217;-73
2021/01/02 01:21:01;;;;;;;6.13;3.25;;;0.70;99.90;;;;;;4996458;28;20195;-75
2021/01/02 01:23:36;;;;;;;4.50;2.80;;;0.70;99.90;;;;;;4993338;28;20200;-74
2021/01/02 01:26:23;;;;;;;6.57;3.30;;;0.70;99.90;;;;;;4993407;28;20281;-74
2021/01/02 01:28:55;;;;;;;5.68;3.30;;;0.60;99.90;;;;;;4991122;28;20284;-74
2021/01/02 01:31:22;;;;;;;5.05;3.15;;;0.60;99.90;;;;;;4992308;28;20537;-74
2021/01/02 01:33:52;;;;;;;5.75;3.22;;;0.70;99.90;;;;;;4996283;28;20192;-75
2021/01/02 01:36:20;;;;;;;5.72;3.38;;;0.70;99.90;;;;;;5003213;28;20268;-75
2021/01/02 01:38:54;;;;;;;7.88;3.17;;;0.70;99.90;;;;;;4997810;28;20214;-75
2021/01/02 01:41:36;;;;;;;4.43;3.05;;;0.70;99.90;;;;;;4997196;28;20222;-74
2021/01/02 01:44:05;;;;;;;4.78;3.00;;;0.60;99.90;;;;;;4993061;28;20203;-75
2021/01/02 01:46:49;;;;;;;4.85;3.00;;;0.60;99.90;;;;;;4994177;28;20203;-74
2021/01/02 01:49:38;;;;;;;3.72;2.58;;;0.60;99.90;;;;;;4994362;28;20191;-75
2021/01/02 01:52:11;;;;;;;4.75;3.08;;;0.70;99.90;;;;;;4993204;28;20345;-76
2021/01/02 01:54:37;;;;;;;4.15;2.70;;;0.70;99.90;;;;;;4992803;28;20283;-74
2021/01/02 01:57:05;;;;;;;4.78;3.05;;;0.80;99.90;;;;;;4996155;28;20310;-75
2021/01/02 01:59:56;;;;;;;4.82;2.80;;;0.80;99.90;;;;;;4989728;28;20704;-74
2021/01/02 02:02:44;;;;;;;4.78;2.88;;;0.80;99.90;;;;;;4986601;28;20204;-74
2021/01/02 02:05:16;;;;;;;4.70;3.00;;;0.80;99.90;;;;;;4982197;28;20681;-75
2021/01/02 02:07:46;;;;;;;4.30;2.90;;;0.80;99.90;;;;;;4993590;28;20198;-74
2021/01/02 02:10:26;;;;;;;5.10;3.00;;;0.80;99.90;;;;;;4996234;28;20223;-75
2021/01/02 02:12:57;;;;;;;4.93;2.95;;;0.80;99.90;;;;;;4995927;28;20544;-74
2021/01/02 02:15:28;;;;;;;5.38;3.33;;;0.70;99.90;;;;;;4991017;28;20716;-74
2021/01/02 02:18:06;;;;;;;4.80;2.95;;;0.70;99.90;;;;;;4994720;28;20194;-75
2021/01/02 02:20:34;;;;;;;3.28;2.58;;;0.70;99.90;;;;;;4991716;28;20278;-74
2021/01/02 02:23:09;;;;;;;4.32;2.60;;;0.70;99.90;;;;;;4991818;28;20214;-75
2021/01/02 02:26:04;;;;;;;5.10;3.00;;;0.70;99.90;;;;;;4992818;28;20202;-75
2021/01/02 02:28:36;;;;;;;3.45;2.50;;;0.80;99.90;;;;;;4991253;28;20250;-76
2021/01/02 02:31:05;;;;;;;3.42;2.55;;;0.80;99.90;;;;;;4993433;28;20206;-74
2021/01/02 02:33:33;;;;;;;4.45;2.70;;;0.80;99.90;;;;;;4992412;28;20246;-75
2021/01/02 02:36:00;;;;;;;4.75;2.92;;;0.80;99.90;;;;;;4992355;28;20788;-75
2021/01/02 02:38:26;;;;;;;5.57;3.25;;;0.80;99.90;;;;;;4990105;28;20250;-74
2021/01/02 02:40:53;;;;;;;4.05;2.65;;;0.70;99.90;;;;;;4992081;28;20515;-74
2021/01/02 02:43:21;;;;;;;4.22;2.80;;;0.70;99.90;;;;;;4990833;28;20210;-75
2021/01/02 02:45:50;;;;;;;4.18;2.53;;;0.70;99.90;;;;;;4994268;28;20280;-74
2021/01/02 02:48:19;;;;;;;3.45;2.60;;;0.70;99.90;;;;;;4995783;28;20717;-74
2021/01/02 02:50:49;;;;;;;5.85;2.85;;;0.70;99.90;;;;;;4993071;28;20298;-74
2021/01/02 02:53:16;;;;;;;4.45;2.90;;;0.70;99.90;;;;;;4993794;28;20207;-74
2021/01/02 02:55:42;;;;;;;3.83;2.60;;;0.70;99.90;;;;;;4990894;28;20211;-74
2021/01/02 02:58:09;;;;;;;4.13;2.72;;;0.70;99.90;;;;;;4991187;28;20212;-75
2021/01/02 03:00:37;;;;;;;4.82;2.90;;;0.70;99.90;;;;;;4990502;28;20690;-74
2021/01/02 03:03:03;;;;;;;4.50;2.97;;;0.70;99.90;;;;;;4992346;28;20591;-74
2021/01/02 03:05:29;;;;;;;3.70;2.50;;;0.80;99.90;;;;;;4987652;28;20235;-74
2021/01/02 03:07:56;;;;;;;4.88;2.97;;;0.80;99.90;;;;;;4992131;28;20198;-74
2021/01/02 03:10:24;;;;;;;5.72;2.65;;;0.70;99.90;;;;;;4993056;28;20210;-76
2021/01/02 03:12:53;;;;;;;4.88;2.78;;;0.70;99.90;;;;;;4991518;28;20199;-74
2021/01/02 03:15:22;;;;;;;3.97;2.75;;;0.80;99.90;;;;;;4987859;28;20567;-75
2021/01/02 03:17:49;;;;;;;4.85;2.88;;;0.70;99.90;;;;;;4989981;28;20228;-75
2021/01/02 03:20:16;;;;;;;3.90;2.72;;;0.80;99.90;;;;;;4989397;28;20191;-75
2021/01/02 03:22:45;;;;;;;7.70;2.80;;;0.70;99.90;;;;;;4991825;28;20200;-75
2021/01/02 03:25:12;;;;;;;3.45;2.40;;;0.70;99.90;;;;;;4990421;28;20198;-75
2021/01/02 03:27:38;;;;;;;4.10;2.72;;;0.70;99.90;;;;;;4999378;28;20199;-74
2021/01/02 03:30:09;;;;;;;4.40;2.80;;;0.70;99.90;;;;;;4992263;28;20779;-75
2021/01/02 03:32:36;;;;;;;4.10;2.63;;;0.70;99.90;;;;;;4990280;28;20206;-74
2021/01/02 03:35:05;;;;;;;3.97;2.75;;;0.80;99.90;;;;;;4990588;28;20199;-74
2021/01/02 03:37:32;;;;;;;5.93;2.67;;;0.80;99.90;;;;;;4992719;28;20222;-74
2021/01/02 03:39:58;;;;;;;5.97;2.70;;;0.70;99.90;;;;;;4991564;28;20199;-74
2021/01/02 03:42:23;;;;;;;4.30;2.75;;;0.80;99.90;;;;;;4992142;28;20210;-75
2021/01/02 03:44:49;;;;;;;3.72;2.58;;;0.80;99.90;;;;;;4990100;28;20286;-75
2021/01/02 03:47:15;;;;;;;3.35;2.33;;;0.70;99.90;;;;;;4992566;28;20222;-75
2021/01/02 03:49:41;;;;;;;5.57;3.00;;;0.70;99.90;;;;;;4990952;28;20203;-75
2021/01/02 03:52:07;;;;;;;4.45;2.47;;;0.70;99.90;;;;;;4991608;28;20565;-74
2021/01/02 03:54:34;;;;;;;3.42;2.47;;;0.70;99.90;;;;;;4989953;28;20735;-74
2021/01/02 03:57:00;;;;;;;3.88;2.60;;;0.70;99.90;;;;;;4991636;28;20219;-76
2021/01/02 03:59:26;;;;;;;4.63;2.75;;;0.70;99.90;;;;;;4992740;28;20708;-75
2021/01/02 04:01:59;;;;;;;4.00;2.50;;;0.70;99.90;;;;;;4991900;28;20285;-74
2021/01/02 04:04:26;;;;;;;3.53;2.35;;;0.70;99.90;;;;;;4991688;28;20577;-76
2021/01/02 04:06:52;;;;;;;4.07;2.58;;;0.70;99.90;;;;;;4994030;28;20198;-75
2021/01/02 04:09:18;;;;;;;4.32;2.30;;;0.70;99.90;;;;;;4995873;28;20198;-75
2021/01/02 04:11:44;;;;;;;3.22;2.55;;;0.70;99.90;;;;;;5001654;28;20230;-75
2021/01/02 04:14:11;;;;;;;3.63;2.22;;;0.60;99.90;;;;;;4996524;28;20199;-76
2021/01/02 04:16:41;;;;;;;4.10;2.55;;;0.60;99.90;;;;;;5002672;28;20270;-76
2021/01/02 04:19:08;;;;;;;5.53;2.45;;;0.60;99.90;;;;;;5000646;28;20195;-76
2021/01/02 04:21:34;;;;;;;3.78;2.38;;;0.60;99.90;;;;;;5000712;28;20277;-76
2021/01/02 04:24:01;;;;;;;3.88;2.60;;;0.50;99.90;;;;;;4995146;28;20231;-76
2021/01/02 04:26:28;;;;;;;3.85;2.50;;;0.50;99.90;;;;;;5002067;28;20195;-75
2021/01/02 04:28:54;;;;;;;3.72;2.50;;;0.60;99.90;;;;;;4997407;28;20277;-76
2021/01/02 04:31:20;;;;;;;3.55;2.35;;;0.60;99.90;;;;;;4996813;28;20214;-77
2021/01/02 04:33:49;;;;;;;3.53;2.50;;;0.60;99.90;;;;;;4995107;28;20658;-76
2021/01/02 04:36:16;;;;;;;4.18;2.75;;;0.60;99.90;;;;;;4998544;28;20210;-76
2021/01/02 04:38:43;;;;;;;4.22;2.85;;;0.60;99.90;;;;;;4998461;28;20199;-76
2021/01/02 04:41:12;;;;;;;4.38;2.90;;;0.60;99.90;;;;;;4999047;28;20201;-76
2021/01/02 04:43:38;;;;;;;4.35;2.63;;;0.60;99.90;;;;;;4993563;28;20211;-76
2021/01/02 04:46:06;;;;;;;4.97;2.38;;;0.60;99.90;;;;;;4997889;28;20199;-77
2021/01/02 04:48:32;;;;;;;6.38;2.40;;;0.60;99.90;;;;;;4998803;28;20207;-76
2021/01/02 04:50:58;;;;;;;3.05;2.20;;;0.60;99.90;;;;;;4999708;28;20215;-76
2021/01/02 04:53:24;;;;;;;3.17;2.35;;;0.60;99.90;;;;;;4997596;28;20226;-76
2021/01/02 04:55:53;;;;;;;3.35;2.45;;;0.60;99.90;;;;;;5000405;28;20264;-76
2021/01/02 04:58:22;;;;;;;3.03;2.13;;;0.50;99.90;;;;;;5002825;28;20203;-75
2021/01/02 05:00:48;;;;;;;2.63;2.10;;;0.50;99.90;;;;;;4993081;28;20199;-76
2021/01/02 05:03:14;;;;;;;3.92;2.10;;;0.60;99.90;;;;;;4997917;28;20280;-76
2021/01/02 05:05:40;;;;;;;3.70;2.25;;;0.50;99.90;;;;;;4995295;28;20254;-77
2021/01/02 05:08:06;;;;;;;3.65;2.22;;;0.60;99.90;;;;;;4995897;28;20195;-76
2021/01/02 05:10:33;;;;;;;2.72;2.00;;;0.60;99.90;;;;;;4994659;28;20204;-76
2021/01/02 05:13:12;;;;;;;2.78;1.83;;;0.60;99.90;;;;;;5003847;28;20928;-76
2021/01/02 05:15:38;;;;;;;2.40;2.03;;;0.60;99.90;;;;;;4999968;28;20552;-77
2021/01/02 05:18:04;;;;;;;3.38;1.88;;;0.60;99.90;;;;;;4997953;28;20191;-76
2021/01/02 05:20:30;;;;;;;3.15;2.10;;;0.60;99.90;;;;;;5003646;28;20191;-76
2021/01/02 05:23:09;;;;;;;2.72;1.83;;;0.60;99.90;;;;;;4994270;28;20246;-76
2021/01/02 05:25:36;;;;;;;2.40;1.80;;;0.60;99.90;;;;;;5002149;28;20192;-76
2021/01/02 05:28:02;;;;;;;2.67;1.77;;;0.60;99.90;;;;;;4998455;28;20199;-76
2021/01/02 05:30:30;;;;;;;1.83;1.60;;;0.60;99.90;;;;;;4997579;28;20207;-76
2021/01/02 05:33:10;;;;;;;3.28;1.73;;;0.50;99.90;;;;;;4997268;28;20206;-76
2021/01/02 05:35:37;;;;;;;3.10;1.60;;;0.50;99.90;;;;;;4999640;28;20215;-77
2021/01/02 05:38:22;;;;;;;2.47;1.63;;;0.50;99.90;;;;;;4999205;28;20315;-76
2021/01/02 05:40:59;;;;;;;4.03;1.70;;;0.50;99.90;;;;;;4999628;28;20199;-77
2021/01/02 05:43:28;;;;;;;2.72;1.63;;;0.50;99.90;;;;;;5001421;28;20785;-76
2021/01/02 05:45:55;;;;;;;2.25;1.70;;;0.50;99.90;;;;;;4995311;28;21102;-76
2021/01/02 05:48:28;;;;;;;3.10;1.90;;;0.50;99.90;;;;;;5000596;28;20227;-76
2021/01/02 05:50:57;;;;;;;1.75;1.63;;;0.50;99.90;;;;;;5011104;28;20321;-76
2021/01/02 05:53:23;;;;;;;5.55;1.90;;;0.60;99.90;;;;;;4995829;28;20199;-76
2021/01/02 05:56:08;;;;;;;2.38;1.90;;;0.60;99.90;;;;;;4998868;28;20290;-76
2021/01/02 05:58:36;;;;;;;2.30;1.80;;;0.60;99.90;;;;;;4996819;28;20199;-76
2021/01/02 06:01:09;;;;;;;3.35;1.83;;;0.60;99.90;;;;;;4998502;28;20185;-77
2021/01/02 06:03:37;;;;;;;1.95;1.70;;;0.60;99.90;;;;;;5001894;28;20294;-76
2021/01/02 06:06:11;;;;;;;2.25;1.70;;;0.60;99.90;;;;;;4996816;28;20211;-76
2021/01/02 06:08:51;;;;;;;2.53;1.90;;;0.60;99.90;;;;;;4996321;28;20206;-76
2021/01/02 06:11:19;;;;;;;3.03;1.92;;;0.60;99.90;;;;;;4994423;28;20226;-76
2021/01/02 06:13:46;;;;;;;3.90;2.00;;;0.70;99.90;;;;;;4993861;28;20233;-77
2021/01/02 06:16:12;;;;;;;2.22;1.65;;;0.70;99.90;;;;;;5002251;28;20348;-76
2021/01/02 06:18:40;;;;;;;2.35;1.92;;;0.70;99.90;;;;;;5000059;28;20684;-76
2021/01/02 06:21:17;;;;;;;2.40;1.85;;;0.70;99.90;;;;;;5014838;28;20236;-76
2021/01/02 06:23:46;;;;;;;3.03;1.95;;;0.70;99.90;;;;;;5000336;28;20983;-76
2021/01/02 06:26:13;;;;;;;174.10;38.20;;;0.70;99.90;;;;;;4999604;28;20207;-76
2021/01/02 06:28:40;;;;;;;19.75;10.10;;;0.80;99.90;;;;;;4993397;28;20581;-76
2021/01/02 06:31:15;;;;;;;15.15;9.10;;;0.80;99.90;;;;;;5000331;28;20676;-76
2021/01/02 06:33:46;;;;;;;9.68;4.93;;;0.80;99.90;;;;;;4993849;28;20214;-76
2021/01/02 06:36:33;;;;;;;6.55;4.43;;;0.70;99.90;;;;;;5002384;28;20203;-76
2021/01/02 06:39:27;;;;;;;169.57;69.90;;;0.70;99.90;;;;;;5002720;28;20238;-76
2021/01/02 06:41:54;;;;;;;214.68;84.50;;;0.70;99.90;;;;;;4999256;28;20202;-76
2021/01/02 06:44:45;;;;;;;132.13;51.97;;;0.80;99.90;;;;;;4995254;28;20202;-76
2021/01/02 06:47:30;;;;;;;82.93;39.47;;;0.80;99.90;;;;;;4999247;28;20218;-76
2021/01/02 06:49:56;;;;;;;48.08;27.52;;;0.80;99.90;;;;;;4993583;28;20195;-76
2021/01/02 06:52:48;;;;;;;5.60;3.85;;;0.80;99.90;;;;;;4998068;28;20207;-76
2021/01/02 06:55:19;;;;;;;10.75;6.15;;;0.80;99.90;;;;;;4996534;28;20210;-75
2021/01/02 06:57:45;;;;;;;18.45;10.85;;;0.80;99.90;;;;;;4997623;28;20207;-76
2021/01/02 07:00:28;;;;;;;11.48;7.32;;;0.80;99.90;;;;;;4997488;28;20831;-76
2021/01/02 07:02:55;;;;;;;9.30;6.47;;;0.80;99.90;;;;;;4998478;28;20716;-75
2021/01/02 07:05:47;;;;;;;24.33;16.63;;;0.80;99.90;;;;;;4996232;28;20219;-76
2021/01/02 07:08:45;;;;;;;6.45;4.55;;;0.90;99.90;;;;;;4995150;28;20199;-76
2021/01/02 07:11:25;;;;;;;10.05;6.53;;;0.90;99.90;;;;;;4995113;28;20191;-76
2021/01/02 07:14:09;;;;;;;46.58;27.27;;;0.90;99.90;;;;;;5008268;28;20217;-76
2021/01/02 07:16:55;;;;;;;26.08;15.50;;;0.90;99.90;;;;;;5012169;28;20263;-76
2021/01/02 07:19:24;;;;;;;12.52;8.20;;;0.90;99.90;;;;;;4997276;28;20630;-76
2021/01/02 07:22:13;;;;;;;14.73;8.45;;;1.00;99.90;;;;;;4995380;28;20222;-76
2021/01/02 07:24:41;;;;;;;6.38;4.00;;;1.00;99.90;;;;;;4995553;28;20203;-76
2021/01/02 07:27:13;;;;;;;7.20;4.40;;;1.00;99.90;;;;;;4992602;28;20200;-76
2021/01/02 07:29:42;;;;;;;2.75;2.00;;;1.10;99.90;;;;;;4993907;28;20226;-76
2021/01/02 07:32:13;;;;;;;15.32;9.90;;;1.10;99.90;;;;;;4996961;28;21024;-76
2021/01/02 07:34:43;;;;;;;3.53;2.65;;;1.10;99.90;;;;;;4994190;28;20217;-76
2021/01/02 07:37:15;;;;;;;3.53;2.75;;;1.10;99.90;;;;;;4997667;28;20736;-75
2021/01/02 07:39:51;;;;;;;4.75;3.28;;;1.10;99.90;;;;;;4995471;28;20230;-76
2021/01/02 07:42:20;;;;;;;8.13;5.68;;;1.00;99.90;;;;;;4994837;28;20195;-76
2021/01/02 07:45:04;;;;;;;5.55;3.55;;;1.00;99.90;;;;;;5000681;28;20307;-75
2021/01/02 07:47:30;;;;;;;10.15;3.80;;;1.00;99.90;;;;;;4999101;28;20756;-76
2021/01/02 07:50:14;;;;;;;53.00;16.70;;;1.00;99.90;;;;;;4995431;28;20557;-76
2021/01/02 07:53:00;;;;;;;5.43;3.05;;;1.00;99.90;;;;;;5002039;28;20229;-75
2021/01/02 07:55:28;;;;;;;4.05;2.92;;;1.10;99.90;;;;;;4999633;28;20203;-76
2021/01/02 07:57:54;;;;;;;4.80;1.80;;;1.00;99.90;;;;;;5000152;28;20349;-75
2021/01/02 08:00:20;;;;;;;2.60;1.80;;;1.10;99.90;;;;;;4999000;28;20294;-76
2021/01/02 08:02:46;;;;;;;7.28;5.10;;;1.10;99.90;;;;;;4997548;28;20350;-75
2021/01/02 08:05:14;;;;;;;3.72;2.00;;;1.10;99.90;;;;;;4998306;28;20317;-77
2021/01/02 08:07:41;;;;;;;2.70;1.90;;;1.10;99.90;;;;;;4999978;28;20205;-77
2021/01/02 08:10:12;;;;;;;6.47;4.45;;;1.10;99.90;;;;;;4997352;28;20218;-76
2021/01/02 08:12:45;;;;;;;5.75;3.97;;;1.10;99.90;;;;;;4998249;28;20221;-76
2021/01/02 08:15:14;;;;;;;5.93;4.15;;;1.10;99.90;;;;;;4995149;28;20211;-76
2021/01/02 08:17:41;;;;;;;7.45;4.75;;;1.10;99.90;;;;;;4999226;28;20257;-76
2021/01/02 08:20:08;;;;;;;5.40;3.78;;;1.00;99.90;;;;;;4993598;28;20669;-76
2021/01/02 08:22:36;;;;;;;10.18;6.32;;;1.00;99.90;;;;;;4993675;28;20530;-76
2021/01/02 08:25:08;;;;;;;7.03;5.07;;;1.10;99.90;;;;;;4993083;28;20630;-76
2021/01/02 08:27:35;;;;;;;9.00;6.22;;;1.10;99.90;;;;;;4990461;28;20276;-76
2021/01/02 08:30:03;;;;;;;4.00;2.70;;;1.10;99.90;;;;;;4993928;28;20673;-77
2021/01/02 08:32:34;;;;;;;3.75;3.03;;;1.20;99.90;;;;;;4991551;28;20269;-76
2021/01/02 08:35:00;;;;;;;3.45;2.60;;;1.20;99.90;;;;;;4991979;28;20827;-76
2021/01/02 08:37:27;;;;;;;2.00;1.80;;;1.10;99.90;;;;;;4992316;28;20234;-77
2021/01/02 08:40:05;;;;;;;2.53;1.60;;;1.10;99.90;;;;;;4992061;28;20204;-76
2021/01/02 08:42:46;;;;;;;1.98;1.73;;;1.10;99.90;;;;;;4990022;28;20207;-77
2021/01/02 08:45:14;;;;;;;1.75;1.40;;;1.10;99.90;;;;;;4990436;28;20192;-76
2021/01/02 08:47:40;;;;;;;4.07;2.53;;;1.10;99.90;;;;;;4995852;28;20212;-76
2021/01/02 08:50:11;;;;;;;16.88;9.55;;;1.10;99.90;;;;;;4996054;28;20206;-76
2021/01/02 08:52:37;;;;;;;23.50;14.45;;;1.10;99.90;;;;;;4991126;28;20233;-76
2021/01/02 08:55:13;;;;;;;22.45;14.82;;;1.10;99.90;;;;;;4994349;28;20222;-76
2021/01/02 08:57:43;;;;;;;15.43;9.05;;;1.10;99.90;;;;;;5008449;28;20210;-76
2021/01/02 09:00:15;;;;;;;7.65;4.68;;;1.20;99.90;;;;;;4995130;28;21951;-76
2021/01/02 09:02:46;;;;;;;14.32;9.02;;;1.20;99.90;;;;;;4997132;28;20743;-76
2021/01/02 09:05:25;;;;;;;10.15;6.15;;;1.20;99.90;;;;;;4997526;28;20230;-76
2021/01/02 09:07:53;;;;;;;14.00;8.98;;;1.20;99.90;;;;;;4995655;28;20739;-77
2021/01/02 09:10:25;;;;;;;10.07;7.80;;;1.20;99.90;;;;;;4991521;28;20212;-76
2021/01/02 09:13:04;;;;;;;37.88;22.98;;;1.10;99.90;;;;;;4995580;28;20207;-76
2021/01/02 09:15:49;;;;;;;31.33;21.15;;;1.10;99.90;;;;;;4989361;28;20238;-77
2021/01/02 09:18:17;;;;;;;6.32;4.70;;;1.10;99.90;;;;;;4992318;28;20203;-76
2021/01/02 09:20:43;;;;;;;10.30;7.22;;;1.10;99.90;;;;;;4995184;28;20210;-76
2021/01/02 09:23:09;;;;;;;11.05;8.02;;;1.10;99.90;;;;;;4996312;28;20210;-76
2021/01/02 09:25:37;;;;;;;14.43;10.75;;;1.10;99.90;;;;;;4997208;28;20549;-76
2021/01/02 09:28:17;;;;;;;36.05;24.52;;;1.10;99.90;;;;;;4991115;28;20208;-76
2021/01/02 09:30:48;;;;;;;23.63;12.48;;;1.20;99.90;;;;;;4995288;28;20214;-75
2021/01/02 09:33:14;;;;;;;23.42;14.35;;;1.30;99.90;;;;;;4993858;28;20199;-75
2021/01/02 09:35:41;;;;;;;8.77;5.70;;;1.20;99.90;;;;;;4990063;28;20202;-76
2021/01/02 09:38:07;;;;;;;23.75;13.90;;;1.20;99.90;;;;;;4995957;28;20195;-74
2021/01/02 09:40:39;;;;;;;4.50;2.88;;;1.20;99.90;;;;;;4993621;28;20203;-75
2021/01/02 09:43:08;;;;;;;2.70;1.52;;;1.20;99.90;;;;;;4994207;28;20674;-75
2021/01/02 09:45:34;;;;;;;5.05;3.25;;;1.20;99.90;;;;;;4997160;28;20280;-75
2021/01/02 09:48:00;;;;;;;3.38;2.28;;;1.20;99.90;;;;;;4993637;28;20768;-75
2021/01/02 09:50:26;;;;;;;5.22;3.40;;;1.20;99.90;;;;;;4990195;28;20202;-75
2021/01/02 09:52:52;;;;;;;13.07;9.23;;;1.20;99.90;;;;;;4993162;28;20277;-76
2021/01/02 09:55:18;;;;;;;11.18;6.32;;;1.20;99.90;;;;;;4989704;28;20206;-76
2021/01/02 09:57:48;;;;;;;10.77;8.05;;;1.30;99.90;;;;;;4987169;28;20219;-76
2021/01/02 10:00:15;;;;;;;45.33;31.40;;;1.30;99.90;;;;;;4992496;28;20207;-75
2021/01/02 10:02:41;;;;;;;31.10;21.00;;;1.40;99.90;;;;;;4984805;28;20262;-75
2021/01/02 10:05:07;;;;;;;18.13;11.55;;;1.40;99.90;;;;;;4991136;28;20761;-75
2021/01/02 10:07:33;;;;;;;7.55;5.20;;;1.40;99.90;;;;;;4991217;28;20731;-77
2021/01/02 10:09:59;;;;;;;5.95;3.70;;;1.50;99.90;;;;;;4989787;28;20240;-76
2021/01/02 10:12:24;;;;;;;8.70;5.70;;;1.50;99.90;;;;;;4994373;28;20202;-77
2021/01/02 10:14:50;;;;;;;3.50;2.47;;;1.60;99.90;;;;;;4992218;28;20199;-75
2021/01/02 10:17:17;;;;;;;19.30;13.55;;;1.60;99.90;;;;;;4994546;28;20207;-75
2021/01/02 10:19:46;;;;;;;12.15;8.23;;;1.60;99.90;;;;;;4991030;28;20638;-75
2021/01/02 10:22:13;;;;;;;14.63;8.73;;;1.60;99.90;;;;;;4989317;28;20203;-74
2021/01/02 10:24:39;;;;;;;5.25;3.22;;;1.60;99.90;;;;;;4995577;28;20230;-75
2021/01/02 10:27:07;;;;;;;9.30;4.82;;;1.70;99.90;;;;;;4997313;28;20200;-74
2021/01/02 10:29:32;;;;;;;10.05;5.40;;;1.70;99.90;;;;;;4997602;28;20207;-75
2021/01/02 10:32:00;;;;;;;9.77;5.30;;;1.70;99.90;;;;;;5001864;28;20191;-73
2021/01/02 10:34:26;;;;;;;5.07;3.20;;;1.70;99.90;;;;;;4998038;28;20198;-75
2021/01/02 10:36:52;;;;;;;4.85;2.85;;;1.70;99.90;;;;;;4998120;28;21080;-73
2021/01/02 10:39:18;;;;;;;4.97;3.17;;;1.60;99.90;;;;;;4992174;28;20206;-74
2021/01/02 10:41:46;;;;;;;4.90;2.83;;;1.70;99.90;;;;;;4993761;28;20204;-76
2021/01/02 10:44:13;;;;;;;24.58;13.10;;;1.70;99.90;;;;;;4991299;28;20191;-75
2021/01/02 10:46:47;;;;;;;3.92;2.70;;;1.70;99.90;;;;;;4991290;28;20199;-75
2021/01/02 10:49:14;;;;;;;4.38;3.17;;;1.70;99.90;;;;;;4998749;28;20199;-75
2021/01/02 10:51:40;;;;;;;2.70;1.95;;;1.70;99.90;;;;;;4990693;28;20198;-75
2021/01/02 10:54:08;;;;;;;4.15;2.90;;;1.70;99.90;;;;;;4996414;28;20207;-75
2021/01/02 10:56:34;;;;;;;3.92;2.40;;;1.70;99.90;;;;;;4994240;28;20300;-75
2021/01/02 10:58:59;;;;;;;3.15;1.95;;;1.70;99.90;;;;;;4993320;28;20208;-75
2021/01/02 11:01:26;;;;;;;3.05;1.75;;;1.70;99.90;;;;;;4993761;28;20199;-76
2021/01/02 11:03:51;;;;;;;3.83;2.00;;;1.70;99.90;;;;;;4995900;28;20752;-75
2021/01/02 11:06:17;;;;;;;3.55;2.50;;;1.70;99.90;;;;;;4992830;28;20210;-74
2021/01/02 11:08:45;;;;;;;3.30;2.10;;;1.80;99.90;;;;;;4984052;28;20200;-75
2021/01/02 11:11:18;;;;;;;2.15;1.65;;;1.70;99.90;;;;;;4986135;28;20238;-76
2021/01/02 11:13:44;;;;;;;1.83;1.45;;;1.80;99.90;;;;;;4988267;28;20286;-75
2021/01/02 11:16:10;;;;;;;2.28;1.33;;;1.80;99.90;;;;;;4993507;28;20590;-76
2021/01/02 11:18:35;;;;;;;2.28;1.52;;;1.90;99.90;;;;;;4990830;28;20203;-76
2021/01/02 11:21:01;;;;;;;2.28;1.70;;;1.90;99.90;;;;;;4987357;28;20191;-76
2021/01/02 11:23:28;;;;;;;2.88;1.50;;;1.90;99.90;;;;;;4991990;28;20194;-75
2021/01/02 11:25:53;;;;;;;2.05;1.60;;;1.90;99.90;;;;;;4993082;28;20244;-76
2021/01/02 11:28:19;;;;;;;3.47;1.95;;;1.90;99.90;;;;;;4991046;28;20198;-76
2021/01/02 11:30:45;;;;;;;2.00;1.67;;;1.90;99.90;;;;;;4993137;28;20233;-77
2021/01/02 11:33:11;;;;;;;1.88;1.40;;;1.90;99.90;;;;;;4990026;28;20753;-75
2021/01/02 11:35:36;;;;;;;1.50;1.40;;;2.00;99.90;;;;;;4991444;28;20203;-75
2021/01/02 11:38:02;;;;;;;1.73;1.40;;;2.00;99.90;;;;;;4994030;28;20217;-74
2021/01/02 11:40:27;;;;;;;2.88;1.40;;;2.00;99.90;;;;;;4993622;28;20269;-76
2021/01/02 11:42:55;;;;;;;2.50;1.60;;;2.00;99.90;;;;;;4988809;28;20290;-75
2021/01/02 11:45:22;;;;;;;5.97;3.30;;;2.00;99.90;;;;;;4993661;28;20966;-74
2021/01/02 11:47:48;;;;;;;3.30;2.30;;;2.00;99.90;;;;;;4999473;28;20205;-75
2021/01/02 11:50:15;;;;;;;2.55;1.90;;;2.00;99.90;;;;;;4994284;28;20578;-74
2021/01/02 11:52:40;;;;;;;2.70;1.92;;;2.00;99.90;;;;;;4993915;28;20642;-76
2021/01/02 11:55:07;;;;;;;5.18;2.80;;;2.00;99.90;;;;;;4997127;28;20290;-75
2021/01/02 11:57:33;;;;;;;3.90;2.50;;;2.00;99.90;;;;;;4993356;28;20711;-75
2021/01/02 12:00:00;;;;;;;3.30;2.20;;;2.10;99.90;;;;;;4994378;28;20199;-76
2021/01/02 12:02:25;;;;;;;1.95;1.70;;;2.10;99.90;;;;;;4993001;28;20289;-76
2021/01/02 12:04:51;;;;;;;1.70;1.52;;;2.10;99.90;;;;;;4991460;28;20226;-76
2021/01/02 12:07:17;;;;;;;3.10;1.83;;;2.00;99.90;;;;;;4994828;28;20256;-75
2021/01/02 12:09:45;;;;;;;6.38;3.30;;;2.00;99.90;;;;;;4996284;28;20207;-76
2021/01/02 12:12:11;;;;;;;17.70;6.43;;;2.00;99.90;;;;;;4988017;28;20306;-74
2021/01/02 12:14:37;;;;;;;17.42;7.82;;;2.00;99.90;;;;;;4997413;28;20874;-75
2021/01/02 12:17:08;;;;;;;9.52;4.20;;;2.00;99.90;;;;;;4993914;28;20218;-76
2021/01/02 12:19:34;;;;;;;14.50;6.32;;;1.90;99.90;;;;;;4992377;28;20689;-76
2021/01/02 12:22:05;;;;;;;22.60;8.40;;;1.90;99.90;;;;;;4991154;28;20202;-75
2021/01/02 12:24:31;;;;;;;8.23;4.30;;;1.90;99.90;;;;;;4991473;28;20199;-76
2021/01/02 12:26:59;;;;;;;6.38;3.28;;;1.90;99.90;;;;;;4992989;28;20203;-76
2021/01/02 12:29:28;;;;;;;5.55;2.60;;;1.90;99.90;;;;;;4991274;28;20621;-76
2021/01/02 12:31:57;;;;;;;2.78;1.98;;;1.90;99.90;;;;;;4972027;28;20233;-76
2021/01/02 12:34:28;;;;;;;3.22;2.17;;;2.00;99.90;;;;;;5005860;28;20648;-75
2021/01/02 12:36:56;;;;;;;3.60;2.55;;;2.00;99.90;;;;;;5001251;28;20553;-76
2021/01/02 12:39:26;;;;;;;8.85;3.60;;;2.00;99.90;;;;;;4993866;28;20206;-77
2021/01/02 12:41:52;;;;;;;16.50;5.53;;;2.00;99.90;;;;;;4990792;28;20198;-75
2021/01/02 12:44:18;;;;;;;12.82;5.03;;;2.00;99.90;;;;;;4991235;28;20281;-75
2021/01/02 12:46:49;;;;;;;12.30;4.53;;;2.00;99.90;;;;;;4991305;28;20210;-76
2021/01/02 12:49:17;;;;;;;8.90;4.10;;;2.00;99.90;;;;;;4996103;28;20245;-75
2021/01/02 12:51:43;;;;;;;9.05;4.30;;;2.00;99.90;;;;;;4997636;28;20709;-76
2021/01/02 12:54:10;;;;;;;5.30;2.80;;;2.00;99.90;;;;;;4997558;28;20199;-76
2021/01/02 12:56:42;;;;;;;5.05;2.42;;;2.00;99.90;;;;;;4996566;28;20242;-76
2021/01/02 12:59:08;;;;;;;2.35;1.90;;;1.90;99.90;;;;;;4984389;28;20206;-76
2021/01/02 13:01:41;;;;;;;2.97;2.03;;;1.90;99.90;;;;;;4994305;28;20686;-76
2021/01/02 13:04:07;;;;;;;2.38;1.85;;;1.90;99.90;;;;;;4994127;28;20325;-75
2021/01/02 13:06:33;;;;;;;3.47;1.90;;;1.90;99.90;;;;;;4998337;28;20206;-76
2021/01/02 13:08:59;;;;;;;2.63;2.15;;;1.80;99.90;;;;;;4991174;28;20196;-77
2021/01/02 13:11:25;;;;;;;6.22;2.22;;;1.70;99.90;;;;;;4996594;28;20200;-77
2021/01/02 13:13:51;;;;;;;2.47;1.90;;;1.60;99.90;;;;;;4999967;28;20679;-77